Time,TemperatureF,DewpointF,PressureIn,WindDirection,WindDirectionDegrees,WindSpeedMPH,WindSpeedGustMPH,Humidity,HourlyPrecipIn,Conditions,Clouds,dailyrainin,SoftwareType,DateUTC
2013-05-12 00:00:00,65.0,64.1,30.03,SSE,168,0.0,0.0,97,0.00,,,0.00,Wunderground v.1.15,2013-05-12 06:00:00,
2013-05-12 00:10:00,65.5,64.6,30.03,SSE,168,0.0,0.0,97,0.00,,,0.00,Wunderground v.1.15,2013-05-12 06:10:00,
2013-05-12 00:15:00,65.8,64.9,30.03,SSE,168,0.0,0.0,97,0.00,,,0.00,Wunderground v.1.15,2013-05-12 06:15:00,
2013-05-12 00:25:00,65.8,64.9,30.03,SSE,168,0.0,0.0,97,0.00,,,0.00,Wunderground v.1.15,2013-05-12 06:25:00,
2013-05-12 00:30:00,65.8,64.9,30.03,SSE,168,0.0,0.0,97,0.00,,,0.00,Wunderground v.1.15,2013-05-12 06:30:00,
2013-05-12 00:40:00,65.6,64.7,30.03,SSE,168,0.0,0.0,97,0.00,,,0.00,Wunderground v.1.15,2013-05-12 06:40:00,
2013-05-12 00:45:00,65.6,64.7,30.03,SSE,168,0.0,0.0,97,0.00,,,0.00,Wunderground v.1.15,2013-05-12 06:45:00,
2013-05-12 00:55:00,65.5,64.6,30.03,SSE,168,0.0,0.0,97,0.00,,,0.00,Wunderground v.1.15,2013-05-12 06:55:00,
2013-05-12 01:00:00,65.3,64.4,30.02,SSE,168,0.0,0.0,97,0.00,,,0.00,Wunderground v.1.15,2013-05-12 07:00:00,
2013-05-12 01:10:00,65.2,64.3,30.02,SSE,168,0.0,0.0,97,0.00,,,0.00,Wunderground v.1.15,2013-05-12 07:10:00,
2013-05-12 01:15:00,65.0,64.1,30.02,SSE,168,0.0,0.0,97,0.00,,,0.00,Wunderground v.1.15,2013-05-12 07:15:00,
2013-05-12 01:25:00,64.8,63.9,30.02,SSE,168,0.0,0.0,97,0.00,,,0.00,Wunderground v.1.15,2013-05-12 07:25:00,
2013-05-12 01:30:00,65.0,64.1,30.02,SSE,168,0.0,0.0,97,0.00,,,0.00,Wunderground v.1.15,2013-05-12 07:30:00,
2013-05-12 01:40:00,65.0,64.4,30.02,SSE,168,0.0,0.0,98,0.00,,,0.00,Wunderground v.1.15,2013-05-12 07:40:00,
2013-05-12 01:45:00,65.0,64.1,30.02,WSW,254,0.0,0.0,97,0.00,,,0.00,Wunderground v.1.15,2013-05-12 07:45:00,
2013-05-12 01:55:00,65.0,64.1,30.02,NW,322,0.0,0.0,97,0.00,,,0.00,Wunderground v.1.15,2013-05-12 07:55:00,
2013-05-12 02:00:00,65.0,64.1,30.02,NNW,337,0.0,0.0,97,0.00,,,0.00,Wunderground v.1.15,2013-05-12 08:00:00,
2013-05-12 02:10:00,64.8,63.9,30.02,North,352,0.0,0.0,97,0.00,,,0.00,Wunderground v.1.15,2013-05-12 08:10:00,
2013-05-12 02:15:00,64.7,63.8,30.02,NNW,346,0.0,0.0,97,0.00,,,0.00,Wunderground v.1.15,2013-05-12 08:15:00,
2013-05-12 02:25:00,64.5,63.6,30.02,NNW,347,0.0,0.0,97,0.00,,,0.00,Wunderground v.1.15,2013-05-12 08:25:00,
2013-05-12 02:30:00,64.3,63.4,30.02,North,352,0.0,0.0,97,0.00,,,0.00,Wunderground v.1.15,2013-05-12 08:30:00,
2013-05-12 02:40:00,64.0,63.1,30.02,North,356,0.0,0.0,97,0.00,,,0.00,Wunderground v.1.15,2013-05-12 08:40:00,
2013-05-12 02:45:00,63.9,63.0,30.03,NNW,344,0.0,0.0,97,0.00,,,0.00,Wunderground v.1.15,2013-05-12 08:45:00,
2013-05-12 02:55:00,63.7,62.8,30.03,NNW,344,0.0,0.0,97,0.00,,,0.00,Wunderground v.1.15,2013-05-12 08:55:00,
2013-05-12 03:00:00,63.5,62.6,30.03,North,349,0.0,0.0,97,0.00,,,0.00,Wunderground v.1.15,2013-05-12 09:00:00,
2013-05-12 03:10:00,63.4,62.5,30.03,NNW,336,0.0,0.0,97,0.00,,,0.00,Wunderground v.1.15,2013-05-12 09:10:00,
2013-05-12 03:15:00,63.2,62.3,30.04,NNW,337,0.0,0.0,97,0.00,,,0.00,Wunderground v.1.15,2013-05-12 09:15:00,
2013-05-12 03:25:00,63.1,62.2,30.04,North,349,0.0,0.0,97,0.00,,,0.00,Wunderground v.1.15,2013-05-12 09:25:00,
2013-05-12 03:30:00,63.1,62.2,30.03,NNW,346,0.0,0.0,97,0.00,,,0.00,Wunderground v.1.15,2013-05-12 09:30:00,
2013-05-12 03:40:00,62.9,62.0,30.03,North,352,0.0,0.0,97,0.00,,,0.00,Wunderground v.1.15,2013-05-12 09:40:00,
2013-05-12 03:45:00,62.7,61.8,30.04,NNW,344,0.0,0.0,97,0.00,,,0.00,Wunderground v.1.15,2013-05-12 09:45:00,
2013-05-12 03:55:00,62.7,61.5,30.04,North,353,0.0,0.0,96,0.00,,,0.00,Wunderground v.1.15,2013-05-12 09:55:00,
2013-05-12 04:00:00,62.6,61.4,30.04,North,353,0.0,2.0,96,0.00,,,0.00,Wunderground v.1.15,2013-05-12 10:00:00,
2013-05-12 04:10:00,62.4,61.2,30.04,North,0,1.0,1.0,96,0.00,,,0.00,Wunderground v.1.15,2013-05-12 10:10:00,
2013-05-12 04:15:00,62.4,61.2,30.04,North,349,0.0,1.0,96,0.00,,,0.00,Wunderground v.1.15,2013-05-12 10:15:00,
2013-05-12 04:25:00,62.3,61.1,30.04,North,359,0.0,0.0,96,0.00,,,0.00,Wunderground v.1.15,2013-05-12 10:25:00,
2013-05-12 04:30:00,62.1,60.7,30.05,North,357,0.0,0.0,95,0.00,,,0.00,Wunderground v.1.15,2013-05-12 10:30:00,
2013-05-12 04:40:00,62.1,60.7,30.05,NW,308,0.0,0.0,95,0.00,,,0.00,Wunderground v.1.15,2013-05-12 10:40:00,
2013-05-12 04:45:00,62.0,60.6,30.05,NW,308,0.0,0.0,95,0.00,,,0.00,Wunderground v.1.15,2013-05-12 10:45:00,
2013-05-12 04:55:00,61.6,60.2,30.05,NW,308,0.0,0.0,95,0.00,,,0.00,Wunderground v.1.15,2013-05-12 10:55:00,
2013-05-12 05:00:00,61.5,60.1,30.06,NW,308,0.0,0.0,95,0.00,,,0.00,Wunderground v.1.15,2013-05-12 11:00:00,
2013-05-12 05:10:00,61.3,59.9,30.06,NW,309,0.0,0.0,95,0.00,,,0.00,Wunderground v.1.15,2013-05-12 11:10:00,
2013-05-12 05:15:00,61.2,59.8,30.06,NW,309,0.0,0.0,95,0.00,,,0.00,Wunderground v.1.15,2013-05-12 11:15:00,
2013-05-12 05:25:00,61.2,59.8,30.06,NW,309,0.0,0.0,95,0.00,,,0.00,Wunderground v.1.15,2013-05-12 11:25:00,
2013-05-12 05:30:00,61.2,59.8,30.07,NW,309,0.0,0.0,95,0.00,,,0.00,Wunderground v.1.15,2013-05-12 11:30:00,
2013-05-12 05:40:00,61.2,59.8,30.07,NW,320,0.0,0.0,95,0.00,,,0.00,Wunderground v.1.15,2013-05-12 11:40:00,
2013-05-12 05:45:00,61.3,59.9,30.07,NW,320,0.0,0.0,95,0.00,,,0.00,Wunderground v.1.15,2013-05-12 11:45:00,
2013-05-12 05:55:00,61.5,60.1,30.07,North,353,0.0,0.0,95,0.00,,,0.00,Wunderground v.1.15,2013-05-12 11:55:00,
2013-05-12 06:00:00,61.6,60.2,30.08,North,353,0.0,0.0,95,0.00,,,0.00,Wunderground v.1.15,2013-05-12 12:00:00,
2013-05-12 06:10:00,61.8,60.1,30.08,North,0,0.0,0.0,94,0.00,,,0.00,Wunderground v.1.15,2013-05-12 12:10:00,
2013-05-12 06:15:00,62.0,60.0,30.08,North,354,0.0,0.0,93,0.00,,,0.00,Wunderground v.1.15,2013-05-12 12:15:00,
2013-05-12 06:25:00,62.3,60.2,30.08,North,0,0.0,0.0,93,0.00,,,0.00,Wunderground v.1.15,2013-05-12 12:25:00,
2013-05-12 06:30:00,62.6,60.2,30.09,North,0,0.0,0.0,92,0.00,,,0.00,Wunderground v.1.15,2013-05-12 12:30:00,
2013-05-12 06:40:00,63.2,60.5,30.09,North,354,0.0,0.0,91,0.00,,,0.00,Wunderground v.1.15,2013-05-12 12:40:00,
2013-05-12 06:45:00,63.7,60.4,30.09,North,356,0.0,0.0,89,0.00,,,0.00,Wunderground v.1.15,2013-05-12 12:45:00,
2013-05-12 06:55:00,64.5,59.9,30.09,NNW,347,0.0,0.0,85,0.00,,,0.00,Wunderground v.1.15,2013-05-12 12:55:00,
2013-05-12 07:00:00,65.0,59.4,30.09,North,0,0.0,0.0,82,0.00,,,0.00,Wunderground v.1.15,2013-05-12 13:00:00,
2013-05-12 13:15:00,77.0,55.8,30.11,North,0,1.0,1.0,48,0.00,,,0.00,Wunderground v.1.15,2013-05-12 19:15:00,
2013-05-12 13:25:00,76.7,56.1,30.11,NNW,337,0.0,0.0,49,0.00,,,0.00,Wunderground v.1.15,2013-05-12 19:25:00,
2013-05-12 13:30:00,77.0,56.9,30.10,NNW,333,1.0,1.0,50,0.00,,,0.00,Wunderground v.1.15,2013-05-12 19:30:00,
2013-05-12 13:40:00,76.7,56.1,30.10,North,0,1.0,4.0,49,0.00,,,0.00,Wunderground v.1.15,2013-05-12 19:40:00,
2013-05-12 13:45:00,76.3,55.2,30.10,North,357,2.0,2.0,48,0.00,,,0.00,Wunderground v.1.15,2013-05-12 19:45:00,
2013-05-12 13:55:00,76.5,55.3,30.10,North,350,1.0,1.0,48,0.00,,,0.00,Wunderground v.1.15,2013-05-12 19:55:00,
2013-05-12 14:00:00,76.7,56.7,30.09,North,0,0.0,6.0,50,0.00,,,0.00,Wunderground v.1.15,2013-05-12 20:00:00,
2013-05-12 14:10:00,77.0,55.8,30.09,NNW,344,1.0,8.0,48,0.00,,,0.00,Wunderground v.1.15,2013-05-12 20:10:00,
2013-05-12 14:15:00,76.8,56.8,30.08,NNE,17,2.0,8.0,50,0.00,,,0.00,Wunderground v.1.15,2013-05-12 20:15:00,
2013-05-12 14:25:00,77.0,56.9,30.08,NNW,337,3.0,8.0,50,0.00,,,0.00,Wunderground v.1.15,2013-05-12 20:25:00,
2013-05-12 14:30:00,77.0,56.4,30.08,NNW,347,3.0,3.0,49,0.00,,,0.00,Wunderground v.1.15,2013-05-12 20:30:00,
2013-05-12 14:40:00,76.8,56.2,30.08,North,352,2.0,2.0,49,0.00,,,0.00,Wunderground v.1.15,2013-05-12 20:40:00,
2013-05-12 14:45:00,76.5,57.6,30.08,North,354,1.0,2.0,52,0.00,,,0.00,Wunderground v.1.15,2013-05-12 20:45:00,
2013-05-12 14:55:00,77.4,57.3,30.08,North,359,1.0,7.0,50,0.00,,,0.00,Wunderground v.1.15,2013-05-12 20:55:00,
2013-05-12 15:00:00,77.6,56.9,30.09,North,352,3.0,4.0,49,0.00,,,0.00,Wunderground v.1.15,2013-05-12 21:00:00,
2013-05-12 15:10:00,77.0,56.9,30.09,North,0,4.0,4.0,50,0.00,,,0.00,Wunderground v.1.15,2013-05-12 21:10:00,
2013-05-12 15:15:00,77.0,57.5,30.08,North,352,3.0,4.0,51,0.00,,,0.00,Wunderground v.1.15,2013-05-12 21:15:00,
2013-05-12 15:25:00,76.8,56.8,30.08,North,0,1.0,4.0,50,0.00,,,0.00,Wunderground v.1.15,2013-05-12 21:25:00,
2013-05-12 15:30:00,76.8,56.2,30.08,NNW,340,1.0,6.0,49,0.00,,,0.00,Wunderground v.1.15,2013-05-12 21:30:00,
2013-05-12 15:40:00,77.0,56.4,30.08,NNW,340,2.0,8.0,49,0.00,,,0.00,Wunderground v.1.15,2013-05-12 21:40:00,
2013-05-12 15:45:00,77.2,57.7,30.07,North,357,2.0,8.0,51,0.00,,,0.00,Wunderground v.1.15,2013-05-12 21:45:00,
2013-05-12 15:55:00,77.4,57.9,30.07,North,354,2.0,2.0,51,0.00,,,0.00,Wunderground v.1.15,2013-05-12 21:55:00,
2013-05-12 16:00:00,77.4,56.7,30.08,NNW,347,2.0,2.0,49,0.00,,,0.00,Wunderground v.1.15,2013-05-12 22:00:00,
2013-05-12 16:10:00,77.0,56.9,30.08,NNW,342,3.0,3.0,50,0.00,,,0.00,Wunderground v.1.15,2013-05-12 22:10:00,
2013-05-12 16:15:00,77.0,57.5,30.07,North,359,0.0,3.0,51,0.00,,,0.00,Wunderground v.1.15,2013-05-12 22:15:00,
2013-05-12 16:25:00,77.6,57.5,30.07,NNW,340,1.0,1.0,50,0.00,,,0.00,Wunderground v.1.15,2013-05-12 22:25:00,
2013-05-12 16:30:00,77.6,56.9,30.07,NNW,346,1.0,1.0,49,0.00,,,0.00,Wunderground v.1.15,2013-05-12 22:30:00,
2013-05-12 16:40:00,77.6,56.4,30.07,North,1,2.0,2.0,48,0.00,,,0.00,Wunderground v.1.15,2013-05-12 22:40:00,
2013-05-12 16:45:00,77.6,57.5,30.07,North,356,2.0,2.0,50,0.00,,,0.00,Wunderground v.1.15,2013-05-12 22:45:00,
2013-05-12 16:55:00,77.2,56.6,30.07,North,349,1.0,2.0,49,0.00,,,0.00,Wunderground v.1.15,2013-05-12 22:55:00,
2013-05-12 17:00:00,77.2,57.1,30.07,North,357,1.0,1.0,50,0.00,,,0.00,Wunderground v.1.15,2013-05-12 23:00:00,
2013-05-12 17:10:00,77.0,56.4,30.07,North,357,0.0,0.0,49,0.00,,,0.00,Wunderground v.1.15,2013-05-12 23:10:00,
2013-05-12 17:15:00,76.8,55.6,30.07,North,0,1.0,1.0,48,0.00,,,0.00,Wunderground v.1.15,2013-05-12 23:15:00,
2013-05-12 17:25:00,76.8,55.0,30.07,North,0,0.0,1.0,47,0.00,,,0.00,Wunderground v.1.15,2013-05-12 23:25:00,
2013-05-12 17:30:00,76.7,55.0,30.07,North,0,1.0,1.0,47,0.00,,,0.00,Wunderground v.1.15,2013-05-12 23:30:00,
2013-05-12 17:40:00,76.5,55.9,30.07,North,356,0.0,0.0,49,0.00,,,0.00,Wunderground v.1.15,2013-05-12 23:40:00,
2013-05-12 17:45:00,76.3,55.7,30.07,North,0,1.0,1.0,49,0.00,,,0.00,Wunderground v.1.15,2013-05-12 23:45:00,
2013-05-12 17:55:00,76.1,56.1,30.07,NNW,344,1.0,1.0,50,0.00,,,0.00,Wunderground v.1.15,2013-05-12 23:55:00,
2013-05-12 18:00:00,75.8,56.4,30.08,NNW,344,1.0,1.0,51,0.00,,,0.00,Wunderground v.1.15,2013-05-13 00:00:00,
2013-05-12 18:10:00,75.4,57.1,30.08,NNW,342,0.0,0.0,53,0.00,,,0.00,Wunderground v.1.15,2013-05-13 00:10:00,
2013-05-12 18:15:00,74.9,57.1,30.08,NNW,343,0.0,0.0,54,0.00,,,0.00,Wunderground v.1.15,2013-05-13 00:15:00,
2013-05-12 18:25:00,74.2,57.0,30.08,North,350,0.0,0.0,55,0.00,,,0.00,Wunderground v.1.15,2013-05-13 00:25:00,
2013-05-12 18:30:00,74.0,57.3,30.09,North,350,0.0,0.0,56,0.00,,,0.00,Wunderground v.1.15,2013-05-13 00:30:00,
2013-05-12 18:40:00,73.3,57.1,30.09,North,350,0.0,0.0,57,0.00,,,0.00,Wunderground v.1.15,2013-05-13 00:40:00,
2013-05-12 18:45:00,73.0,57.8,30.10,North,350,0.0,0.0,59,0.00,,,0.00,Wunderground v.1.15,2013-05-13 00:45:00,
2013-05-12 18:55:00,72.3,57.2,30.10,North,350,0.0,0.0,59,0.00,,,0.00,Wunderground v.1.15,2013-05-13 00:55:00,
2013-05-12 19:00:00,72.0,56.9,30.10,North,353,0.0,0.0,59,0.00,,,0.00,Wunderground v.1.15,2013-05-13 01:00:00,
2013-05-12 19:10:00,71.6,57.4,30.10,North,350,0.0,0.0,61,0.00,,,0.00,Wunderground v.1.15,2013-05-13 01:10:00,
2013-05-12 19:15:00,71.3,57.2,30.10,North,0,0.0,0.0,61,0.00,,,0.00,Wunderground v.1.15,2013-05-13 01:15:00,
2013-05-12 19:25:00,70.9,56.8,30.10,North,0,0.0,0.0,61,0.00,,,0.00,Wunderground v.1.15,2013-05-13 01:25:00,
2013-05-12 19:30:00,70.9,56.8,30.10,North,350,0.0,0.0,61,0.00,,,0.00,Wunderground v.1.15,2013-05-13 01:30:00,
2013-05-12 19:40:00,70.6,56.9,30.10,North,357,0.0,0.0,62,0.00,,,0.00,Wunderground v.1.15,2013-05-13 01:40:00,
2013-05-12 19:45:00,70.4,56.8,30.11,North,356,0.0,0.0,62,0.00,,,0.00,Wunderground v.1.15,2013-05-13 01:45:00,
2013-05-12 19:55:00,69.9,56.7,30.11,NNW,344,0.0,0.0,63,0.00,,,0.00,Wunderground v.1.15,2013-05-13 01:55:00,
2013-05-12 20:00:00,69.6,56.9,30.12,North,354,0.0,0.0,64,0.00,,,0.00,Wunderground v.1.15,2013-05-13 02:00:00,
2013-05-12 20:10:00,69.1,56.8,30.12,North,350,0.0,0.0,65,0.00,,,0.00,Wunderground v.1.15,2013-05-13 02:10:00,
2013-05-12 20:15:00,68.9,56.6,30.12,North,353,0.0,0.0,65,0.00,,,0.00,Wunderground v.1.15,2013-05-13 02:15:00,
2013-05-12 20:25:00,68.4,56.6,30.12,North,353,0.0,0.0,66,0.00,,,0.00,Wunderground v.1.15,2013-05-13 02:25:00,
2013-05-12 20:30:00,68.1,56.7,30.12,North,353,0.0,0.0,67,0.00,,,0.00,Wunderground v.1.15,2013-05-13 02:30:00,
2013-05-12 20:40:00,67.4,56.5,30.12,North,353,0.0,0.0,68,0.00,,,0.00,Wunderground v.1.15,2013-05-13 02:40:00,
2013-05-12 20:45:00,67.3,56.8,30.12,North,353,0.0,0.0,69,0.00,,,0.00,Wunderground v.1.15,2013-05-13 02:45:00,
2013-05-12 20:55:00,66.9,56.4,30.12,North,353,0.0,0.0,69,0.00,,,0.00,Wunderground v.1.15,2013-05-13 02:55:00,
2013-05-12 21:00:00,66.8,56.3,30.13,North,353,0.0,0.0,69,0.00,,,0.00,Wunderground v.1.15,2013-05-13 03:00:00,
2013-05-12 21:10:00,66.3,56.2,30.13,North,353,0.0,0.0,70,0.00,,,0.00,Wunderground v.1.15,2013-05-13 03:10:00,
2013-05-12 21:15:00,66.0,56.3,30.13,North,353,0.0,0.0,71,0.00,,,0.00,Wunderground v.1.15,2013-05-13 03:15:00,
2013-05-12 21:25:00,65.6,56.3,30.13,North,353,0.0,0.0,72,0.00,,,0.00,Wunderground v.1.15,2013-05-13 03:25:00,
2013-05-12 21:30:00,65.3,56.0,30.13,North,353,0.0,0.0,72,0.00,,,0.00,Wunderground v.1.15,2013-05-13 03:30:00,
2013-05-12 21:40:00,64.8,55.9,30.13,North,353,0.0,0.0,73,0.00,,,0.00,Wunderground v.1.15,2013-05-13 03:40:00,
2013-05-12 21:45:00,64.7,56.2,30.13,North,353,0.0,0.0,74,0.00,,,0.00,Wunderground v.1.15,2013-05-13 03:45:00,
2013-05-12 21:55:00,64.2,56.1,30.13,North,353,0.0,0.0,75,0.00,,,0.00,Wunderground v.1.15,2013-05-13 03:55:00,
2013-05-12 22:00:00,63.9,55.8,30.13,North,353,0.0,0.0,75,0.00,,,0.00,Wunderground v.1.15,2013-05-13 04:00:00,
2013-05-12 22:05:00,63.5,55.8,30.13,North,353,0.0,0.0,76,0.00,,,0.00,Wunderground v.1.15,2013-05-13 04:05:00,
2013-05-12 22:10:00,63.4,55.3,30.13,North,349,0.0,0.0,75,0.00,,,0.00,Wunderground v.1.15,2013-05-13 04:10:00,
2013-05-12 22:15:00,63.4,55.0,30.13,North,349,0.0,0.0,74,0.00,,,0.00,Wunderground v.1.15,2013-05-13 04:15:00,
2013-05-12 22:20:00,63.5,54.7,30.13,North,0,0.0,0.0,73,0.00,,,0.00,Wunderground v.1.15,2013-05-13 04:20:00,
2013-05-12 22:25:00,63.4,54.2,30.13,North,0,0.0,0.0,72,0.00,,,0.00,Wunderground v.1.15,2013-05-13 04:25:00,
2013-05-12 22:30:00,63.4,53.8,30.13,North,354,0.0,0.0,71,0.00,,,0.00,Wunderground v.1.15,2013-05-13 04:30:00,
2013-05-12 22:40:00,63.2,53.6,30.13,North,354,0.0,0.0,71,0.00,,,0.00,Wunderground v.1.15,2013-05-13 04:40:00,
2013-05-12 22:45:00,63.1,53.5,30.14,North,354,0.0,0.0,71,0.00,,,0.00,Wunderground v.1.15,2013-05-13 04:45:00,
2013-05-12 22:55:00,62.7,52.8,30.14,North,353,0.0,0.0,70,0.00,,,0.00,Wunderground v.1.15,2013-05-13 04:55:00,
2013-05-12 23:00:00,62.6,53.1,30.15,North,353,0.0,0.0,71,0.00,,,0.00,Wunderground v.1.15,2013-05-13 05:00:00,
2013-05-12 23:10:00,62.3,52.8,30.15,North,353,0.0,0.0,71,0.00,,,0.00,Wunderground v.1.15,2013-05-13 05:10:00,
2013-05-12 23:15:00,62.0,52.9,30.15,North,353,0.0,0.0,72,0.00,,,0.00,Wunderground v.1.15,2013-05-13 05:15:00,
2013-05-12 23:25:00,61.3,52.9,30.15,North,353,0.0,0.0,74,0.00,,,0.00,Wunderground v.1.15,2013-05-13 05:25:00,
2013-05-12 23:30:00,61.2,53.2,30.14,North,353,0.0,0.0,75,0.00,,,0.00,Wunderground v.1.15,2013-05-13 05:30:00,
2013-05-12 23:40:00,61.0,51.9,30.14,North,352,0.0,0.0,72,0.00,,,0.00,Wunderground v.1.15,2013-05-13 05:40:00,
2013-05-12 23:45:00,61.2,51.7,30.14,North,0,0.0,0.0,71,0.00,,,0.00,Wunderground v.1.15,2013-05-13 05:45:00,
2013-05-12 23:55:00,61.3,50.6,30.14,North,0,0.0,0.0,68,0.00,,,0.00,Wunderground v.1.15,2013-05-13 05:55:00,